sensor_id;sensor_type;location;lat;lon;timestamp;P1;durP1;ratioP1;P2;durP2;ratioP2
3249;SDS011;1637;42.020;23.992;2023-02-03T00:01:51;3.00;;;2.00;;
3249;SDS011;1637;42.020;23.992;2023-02-03T00:04:17;3.07;;;2.27;;
3249;SDS011;1637;42.020;23.992;2023-02-03T00:06:46;8.93;;;4.60;;
3249;SDS011;1637;42.020;23.992;2023-02-03T00:09:13;10.40;;;5.63;;
3249;SDS011;1637;42.020;23.992;2023-02-03T00:11:40;7.73;;;5.20;;
3249;SDS011;1637;42.020;23.992;2023-02-03T00:14:07;7.30;;;4.87;;
3249;SDS011;1637;42.020;23.992;2023-02-03T00:16:34;6.77;;;3.73;;
3249;SDS011;1637;42.020;23.992;2023-02-03T00:19:01;12.50;;;6.73;;
3249;SDS011;1637;42.020;23.992;2023-02-03T00:21:28;12.10;;;6.30;;
3249;SDS011;1637;42.020;23.992;2023-02-03T00:23:56;19.57;;;7.80;;
3249;SDS011;1637;42.020;23.992;2023-02-03T00:26:23;36.03;;;17.70;;
3249;SDS011;1637;42.020;23.992;2023-02-03T00:28:52;34.53;;;14.43;;
3249;SDS011;1637;42.020;23.992;2023-02-03T00:31:20;24.20;;;12.40;;
3249;SDS011;1637;42.020;23.992;2023-02-03T00:33:52;20.63;;;11.33;;
3249;SDS011;1637;42.020;23.992;2023-02-03T00:36:20;28.07;;;13.40;;
3249;SDS011;1637;42.020;23.992;2023-02-03T00:38:46;162.87;;;51.87;;
3249;SDS011;1637;42.020;23.992;2023-02-03T00:41:15;36.03;;;16.60;;
3249;SDS011;1637;42.020;23.992;2023-02-03T00:43:42;154.00;;;43.20;;
3249;SDS011;1637;42.020;23.992;2023-02-03T00:46:09;245.10;;;71.17;;
3249;SDS011;1637;42.020;23.992;2023-02-03T00:48:36;139.73;;;43.70;;
3249;SDS011;1637;42.020;23.992;2023-02-03T00:51:02;34.87;;;14.17;;
3249;SDS011;1637;42.020;23.992;2023-02-03T00:53:30;22.40;;;12.13;;
3249;SDS011;1637;42.020;23.992;2023-02-03T00:55:57;24.77;;;12.40;;
3249;SDS011;1637;42.020;23.992;2023-02-03T00:58:25;54.60;;;19.60;;
3249;SDS011;1637;42.020;23.992;2023-02-03T01:00:52;23.90;;;8.83;;
3249;SDS011;1637;42.020;23.992;2023-02-03T01:03:20;21.57;;;10.13;;
3249;SDS011;1637;42.020;23.992;2023-02-03T01:05:46;18.53;;;9.13;;
3249;SDS011;1637;42.020;23.992;2023-02-03T01:08:13;21.40;;;10.30;;
3249;SDS011;1637;42.020;23.992;2023-02-03T01:10:40;19.87;;;9.27;;
3249;SDS011;1637;42.020;23.992;2023-02-03T01:13:07;25.80;;;12.23;;
3249;SDS011;1637;42.020;23.992;2023-02-03T01:15:35;25.20;;;13.30;;
3249;SDS011;1637;42.020;23.992;2023-02-03T01:18:02;28.30;;;12.33;;
3249;SDS011;1637;42.020;23.992;2023-02-03T01:20:29;26.17;;;12.93;;
3249;SDS011;1637;42.020;23.992;2023-02-03T01:22:56;26.23;;;13.20;;
3249;SDS011;1637;42.020;23.992;2023-02-03T01:25:22;30.67;;;13.13;;
3249;SDS011;1637;42.020;23.992;2023-02-03T01:27:49;24.90;;;13.73;;
3249;SDS011;1637;42.020;23.992;2023-02-03T01:30:16;35.93;;;14.70;;
3249;SDS011;1637;42.020;23.992;2023-02-03T01:32:45;38.63;;;16.00;;
3249;SDS011;1637;42.020;23.992;2023-02-03T01:35:11;35.73;;;14.83;;
3249;SDS011;1637;42.020;23.992;2023-02-03T01:37:38;40.17;;;17.60;;
3249;SDS011;1637;42.020;23.992;2023-02-03T01:40:05;39.53;;;15.90;;
3249;SDS011;1637;42.020;23.992;2023-02-03T01:42:33;33.87;;;15.20;;
3249;SDS011;1637;42.020;23.992;2023-02-03T01:45:00;41.27;;;16.30;;
3249;SDS011;1637;42.020;23.992;2023-02-03T01:47:28;42.13;;;16.30;;
3249;SDS011;1637;42.020;23.992;2023-02-03T01:50:02;31.20;;;14.70;;
3249;SDS011;1637;42.020;23.992;2023-02-03T01:52:35;32.43;;;13.63;;
3249;SDS011;1637;42.020;23.992;2023-02-03T01:55:04;30.30;;;13.93;;
3249;SDS011;1637;42.020;23.992;2023-02-03T01:57:35;31.13;;;13.80;;
3249;SDS011;1637;42.020;23.992;2023-02-03T02:00:07;39.60;;;15.57;;
3249;SDS011;1637;42.020;23.992;2023-02-03T02:02:35;36.00;;;16.60;;
3249;SDS011;1637;42.020;23.992;2023-02-03T02:05:04;31.83;;;14.57;;
3249;SDS011;1637;42.020;23.992;2023-02-03T02:07:33;49.70;;;19.17;;
3249;SDS011;1637;42.020;23.992;2023-02-03T02:10:02;41.90;;;17.97;;
3249;SDS011;1637;42.020;23.992;2023-02-03T02:12:30;45.30;;;16.80;;
3249;SDS011;1637;42.020;23.992;2023-02-03T02:14:56;41.47;;;15.97;;
3249;SDS011;1637;42.020;23.992;2023-02-03T02:17:29;32.80;;;15.40;;
3249;SDS011;1637;42.020;23.992;2023-02-03T02:23:39;29.50;;;12.77;;
3249;SDS011;1637;42.020;23.992;2023-02-03T02:32:48;31.67;;;12.87;;
3249;SDS011;1637;42.020;23.992;2023-02-03T02:35:30;18.83;;;8.20;;
3249;SDS011;1637;42.020;23.992;2023-02-03T02:38:10;23.47;;;8.07;;
3249;SDS011;1637;42.020;23.992;2023-02-03T02:40:42;19.30;;;8.93;;
3249;SDS011;1637;42.020;23.992;2023-02-03T02:43:17;24.00;;;10.37;;
3249;SDS011;1637;42.020;23.992;2023-02-03T02:45:49;17.67;;;7.93;;
3249;SDS011;1637;42.020;23.992;2023-02-03T02:48:21;18.50;;;8.50;;
3249;SDS011;1637;42.020;23.992;2023-02-03T02:50:52;15.93;;;7.03;;
3249;SDS011;1637;42.020;23.992;2023-02-03T02:53:24;15.70;;;7.23;;
3249;SDS011;1637;42.020;23.992;2023-02-03T02:55:54;11.13;;;5.80;;
3249;SDS011;1637;42.020;23.992;2023-02-03T02:58:23;12.70;;;6.13;;
3249;SDS011;1637;42.020;23.992;2023-02-03T03:00:53;10.20;;;4.00;;
3249;SDS011;1637;42.020;23.992;2023-02-03T03:03:23;7.63;;;3.20;;
3249;SDS011;1637;42.020;23.992;2023-02-03T03:05:50;7.00;;;3.30;;
3249;SDS011;1637;42.020;23.992;2023-02-03T03:08:20;3.87;;;2.57;;
3249;SDS011;1637;42.020;23.992;2023-02-03T03:10:51;3.43;;;2.43;;
3249;SDS011;1637;42.020;23.992;2023-02-03T03:13:20;3.10;;;2.30;;
3249;SDS011;1637;42.020;23.992;2023-02-03T03:15:50;7.30;;;2.20;;
3249;SDS011;1637;42.020;23.992;2023-02-03T03:18:19;5.57;;;2.93;;
3249;SDS011;1637;42.020;23.992;2023-02-03T03:20:52;3.70;;;2.03;;
3249;SDS011;1637;42.020;23.992;2023-02-03T03:23:24;2.97;;;1.70;;
3249;SDS011;1637;42.020;23.992;2023-02-03T03:25:56;3.90;;;2.30;;
3249;SDS011;1637;42.020;23.992;2023-02-03T03:28:32;4.07;;;2.47;;
3249;SDS011;1637;42.020;23.992;2023-02-03T03:31:03;2.47;;;1.40;;
3249;SDS011;1637;42.020;23.992;2023-02-03T03:33:31;6.20;;;1.30;;
3249;SDS011;1637;42.020;23.992;2023-02-03T03:36:00;4.27;;;2.40;;
3249;SDS011;1637;42.020;23.992;2023-02-03T03:38:31;4.77;;;3.10;;
3249;SDS011;1637;42.020;23.992;2023-02-03T03:41:04;5.13;;;2.77;;
3249;SDS011;1637;42.020;23.992;2023-02-03T03:43:37;5.13;;;2.90;;
3249;SDS011;1637;42.020;23.992;2023-02-03T03:46:09;9.17;;;5.17;;
3249;SDS011;1637;42.020;23.992;2023-02-03T03:48:41;19.60;;;8.10;;
3249;SDS011;1637;42.020;23.992;2023-02-03T03:51:17;17.10;;;8.17;;
3249;SDS011;1637;42.020;23.992;2023-02-03T03:53:48;40.50;;;16.20;;
3249;SDS011;1637;42.020;23.992;2023-02-03T03:56:18;42.87;;;17.53;;
3249;SDS011;1637;42.020;23.992;2023-02-03T03:58:49;22.10;;;12.00;;
3249;SDS011;1637;42.020;23.992;2023-02-03T04:01:19;31.57;;;13.47;;
3249;SDS011;1637;42.020;23.992;2023-02-03T04:03:51;27.27;;;12.67;;
3249;SDS011;1637;42.020;23.992;2023-02-03T04:06:20;17.20;;;8.20;;
3249;SDS011;1637;42.020;23.992;2023-02-03T04:08:47;18.80;;;8.00;;
3249;SDS011;1637;42.020;23.992;2023-02-03T04:11:14;16.63;;;6.93;;
3249;SDS011;1637;42.020;23.992;2023-02-03T04:14:01;23.77;;;11.17;;
3249;SDS011;1637;42.020;23.992;2023-02-03T04:16:28;29.47;;;15.30;;
3249;SDS011;1637;42.020;23.992;2023-02-03T04:18:56;23.77;;;10.03;;
3249;SDS011;1637;42.020;23.992;2023-02-03T04:21:23;24.17;;;12.10;;
3249;SDS011;1637;42.020;23.992;2023-02-03T04:23:50;20.27;;;11.80;;
3249;SDS011;1637;42.020;23.992;2023-02-03T04:26:16;23.43;;;12.00;;
3249;SDS011;1637;42.020;23.992;2023-02-03T04:28:43;20.63;;;9.00;;
3249;SDS011;1637;42.020;23.992;2023-02-03T04:31:10;32.17;;;15.30;;
3249;SDS011;1637;42.020;23.992;2023-02-03T04:33:37;20.47;;;9.40;;
3249;SDS011;1637;42.020;23.992;2023-02-03T04:36:05;18.50;;;9.40;;
3249;SDS011;1637;42.020;23.992;2023-02-03T04:38:33;14.90;;;6.57;;
3249;SDS011;1637;42.020;23.992;2023-02-03T04:40:59;45.90;;;18.40;;
3249;SDS011;1637;42.020;23.992;2023-02-03T04:43:26;26.93;;;12.00;;
3249;SDS011;1637;42.020;23.992;2023-02-03T04:45:53;21.70;;;9.93;;
3249;SDS011;1637;42.020;23.992;2023-02-03T04:48:20;24.57;;;11.10;;
3249;SDS011;1637;42.020;23.992;2023-02-03T04:50:47;22.20;;;10.53;;
3249;SDS011;1637;42.020;23.992;2023-02-03T04:53:15;41.30;;;14.30;;
3249;SDS011;1637;42.020;23.992;2023-02-03T04:55:44;20.00;;;8.43;;
3249;SDS011;1637;42.020;23.992;2023-02-03T04:58:11;18.37;;;8.77;;
3249;SDS011;1637;42.020;23.992;2023-02-03T05:00:38;24.80;;;9.10;;
3249;SDS011;1637;42.020;23.992;2023-02-03T05:03:05;24.17;;;10.50;;
3249;SDS011;1637;42.020;23.992;2023-02-03T05:05:32;59.73;;;24.57;;
3249;SDS011;1637;42.020;23.992;2023-02-03T05:07:59;42.60;;;18.10;;
3249;SDS011;1637;42.020;23.992;2023-02-03T05:10:27;38.43;;;22.03;;
3249;SDS011;1637;42.020;23.992;2023-02-03T05:12:54;34.17;;;17.57;;
3249;SDS011;1637;42.020;23.992;2023-02-03T05:15:21;31.57;;;15.07;;
3249;SDS011;1637;42.020;23.992;2023-02-03T05:17:49;24.00;;;12.60;;
3249;SDS011;1637;42.020;23.992;2023-02-03T05:20:17;23.50;;;13.40;;
3249;SDS011;1637;42.020;23.992;2023-02-03T05:22:44;46.80;;;20.37;;
3249;SDS011;1637;42.020;23.992;2023-02-03T05:25:10;46.70;;;21.30;;
3249;SDS011;1637;42.020;23.992;2023-02-03T05:27:39;59.83;;;26.90;;
3249;SDS011;1637;42.020;23.992;2023-02-03T05:30:06;47.23;;;21.17;;
3249;SDS011;1637;42.020;23.992;2023-02-03T05:32:35;46.23;;;21.70;;
3249;SDS011;1637;42.020;23.992;2023-02-03T05:35:01;12.23;;;6.30;;
3249;SDS011;1637;42.020;23.992;2023-02-03T05:37:28;9.80;;;4.77;;
3249;SDS011;1637;42.020;23.992;2023-02-03T05:39:55;15.47;;;6.67;;
3249;SDS011;1637;42.020;23.992;2023-02-03T05:42:47;15.83;;;9.40;;
3249;SDS011;1637;42.020;23.992;2023-02-03T05:45:13;59.77;;;25.33;;
3249;SDS011;1637;42.020;23.992;2023-02-03T05:47:40;53.03;;;24.87;;
3249;SDS011;1637;42.020;23.992;2023-02-03T05:50:08;47.67;;;21.27;;
3249;SDS011;1637;42.020;23.992;2023-02-03T05:52:35;49.13;;;20.33;;
3249;SDS011;1637;42.020;23.992;2023-02-03T05:55:01;77.37;;;25.20;;
3249;SDS011;1637;42.020;23.992;2023-02-03T05:57:28;57.30;;;22.87;;
3249;SDS011;1637;42.020;23.992;2023-02-03T05:59:57;54.07;;;21.80;;
3249;SDS011;1637;42.020;23.992;2023-02-03T06:02:23;48.20;;;21.83;;
3249;SDS011;1637;42.020;23.992;2023-02-03T06:04:50;45.20;;;21.00;;
3249;SDS011;1637;42.020;23.992;2023-02-03T06:07:17;51.27;;;21.20;;
3249;SDS011;1637;42.020;23.992;2023-02-03T06:09:44;72.47;;;28.57;;
3249;SDS011;1637;42.020;23.992;2023-02-03T06:12:10;108.67;;;44.50;;
3249;SDS011;1637;42.020;23.992;2023-02-03T06:14:37;136.07;;;47.50;;
3249;SDS011;1637;42.020;23.992;2023-02-03T06:17:06;79.97;;;35.97;;
3249;SDS011;1637;42.020;23.992;2023-02-03T06:19:32;125.07;;;47.07;;
3249;SDS011;1637;42.020;23.992;2023-02-03T06:21:59;105.80;;;41.60;;
3249;SDS011;1637;42.020;23.992;2023-02-03T06:24:26;159.17;;;48.87;;
3249;SDS011;1637;42.020;23.992;2023-02-03T06:26:53;42.40;;;18.60;;
3249;SDS011;1637;42.020;23.992;2023-02-03T06:29:20;43.27;;;19.37;;
3249;SDS011;1637;42.020;23.992;2023-02-03T06:31:46;81.60;;;32.17;;
3249;SDS011;1637;42.020;23.992;2023-02-03T06:34:15;118.70;;;43.47;;
3249;SDS011;1637;42.020;23.992;2023-02-03T06:36:41;105.53;;;38.80;;
3249;SDS011;1637;42.020;23.992;2023-02-03T06:39:08;32.60;;;13.07;;
3249;SDS011;1637;42.020;23.992;2023-02-03T06:41:35;16.53;;;9.27;;
3249;SDS011;1637;42.020;23.992;2023-02-03T06:44:02;39.77;;;19.50;;
3249;SDS011;1637;42.020;23.992;2023-02-03T06:46:29;148.10;;;50.00;;
3249;SDS011;1637;42.020;23.992;2023-02-03T06:48:56;75.13;;;33.27;;
3249;SDS011;1637;42.020;23.992;2023-02-03T06:51:24;67.77;;;30.37;;
3249;SDS011;1637;42.020;23.992;2023-02-03T06:53:51;55.20;;;27.33;;
3249;SDS011;1637;42.020;23.992;2023-02-03T06:56:18;27.80;;;14.70;;
3249;SDS011;1637;42.020;23.992;2023-02-03T06:58:45;38.30;;;19.70;;
3249;SDS011;1637;42.020;23.992;2023-02-03T07:01:12;85.37;;;39.17;;
3249;SDS011;1637;42.020;23.992;2023-02-03T07:03:38;59.70;;;22.67;;
3249;SDS011;1637;42.020;23.992;2023-02-03T07:06:06;69.00;;;25.70;;
3249;SDS011;1637;42.020;23.992;2023-02-03T07:08:34;59.23;;;21.40;;
3249;SDS011;1637;42.020;23.992;2023-02-03T07:11:01;78.13;;;33.53;;
3249;SDS011;1637;42.020;23.992;2023-02-03T07:13:28;81.63;;;40.07;;
3249;SDS011;1637;42.020;23.992;2023-02-03T07:15:54;57.17;;;24.23;;
3249;SDS011;1637;42.020;23.992;2023-02-03T07:18:21;41.83;;;17.93;;
3249;SDS011;1637;42.020;23.992;2023-02-03T07:20:49;46.53;;;22.47;;
3249;SDS011;1637;42.020;23.992;2023-02-03T07:23:17;76.73;;;33.77;;
3249;SDS011;1637;42.020;23.992;2023-02-03T07:25:45;109.27;;;46.90;;
3249;SDS011;1637;42.020;23.992;2023-02-03T07:28:12;100.63;;;40.93;;
3249;SDS011;1637;42.020;23.992;2023-02-03T07:30:39;83.23;;;31.80;;
3249;SDS011;1637;42.020;23.992;2023-02-03T07:33:06;98.73;;;42.70;;
3249;SDS011;1637;42.020;23.992;2023-02-03T07:35:33;176.50;;;63.27;;
3249;SDS011;1637;42.020;23.992;2023-02-03T07:38:00;75.70;;;30.80;;
3249;SDS011;1637;42.020;23.992;2023-02-03T07:40:26;61.30;;;30.70;;
3249;SDS011;1637;42.020;23.992;2023-02-03T07:42:55;78.23;;;34.60;;
3249;SDS011;1637;42.020;23.992;2023-02-03T07:45:22;90.63;;;39.63;;
3249;SDS011;1637;42.020;23.992;2023-02-03T07:47:49;74.00;;;35.00;;
3249;SDS011;1637;42.020;23.992;2023-02-03T07:50:16;76.60;;;31.53;;
3249;SDS011;1637;42.020;23.992;2023-02-03T07:52:43;75.43;;;35.00;;
3249;SDS011;1637;42.020;23.992;2023-02-03T07:55:10;44.27;;;19.90;;
3249;SDS011;1637;42.020;23.992;2023-02-03T07:57:37;30.73;;;16.13;;
3249;SDS011;1637;42.020;23.992;2023-02-03T08:00:09;29.83;;;16.40;;
3249;SDS011;1637;42.020;23.992;2023-02-03T08:02:38;61.23;;;26.03;;
3249;SDS011;1637;42.020;23.992;2023-02-03T08:05:05;47.00;;;23.83;;
3249;SDS011;1637;42.020;23.992;2023-02-03T08:07:32;36.60;;;18.67;;
3249;SDS011;1637;42.020;23.992;2023-02-03T08:09:59;38.00;;;19.20;;
3249;SDS011;1637;42.020;23.992;2023-02-03T08:12:26;35.20;;;17.60;;
3249;SDS011;1637;42.020;23.992;2023-02-03T08:14:53;31.33;;;16.40;;
3249;SDS011;1637;42.020;23.992;2023-02-03T08:17:21;36.97;;;15.67;;
3249;SDS011;1637;42.020;23.992;2023-02-03T08:19:48;38.47;;;16.33;;
3249;SDS011;1637;42.020;23.992;2023-02-03T08:22:15;27.30;;;13.80;;
3249;SDS011;1637;42.020;23.992;2023-02-03T08:24:42;32.10;;;16.60;;
3249;SDS011;1637;42.020;23.992;2023-02-03T08:27:10;38.57;;;18.60;;
3249;SDS011;1637;42.020;23.992;2023-02-03T08:29:37;30.97;;;18.67;;
3249;SDS011;1637;42.020;23.992;2023-02-03T08:32:04;28.47;;;14.63;;
3249;SDS011;1637;42.020;23.992;2023-02-03T08:34:35;57.83;;;29.70;;
3249;SDS011;1637;42.020;23.992;2023-02-03T08:37:02;49.90;;;29.37;;
3249;SDS011;1637;42.020;23.992;2023-02-03T08:39:30;57.47;;;34.20;;
3249;SDS011;1637;42.020;23.992;2023-02-03T08:41:57;41.60;;;24.50;;
3249;SDS011;1637;42.020;23.992;2023-02-03T08:44:24;35.87;;;20.07;;
3249;SDS011;1637;42.020;23.992;2023-02-03T08:46:51;33.87;;;18.30;;
3249;SDS011;1637;42.020;23.992;2023-02-03T08:49:18;42.73;;;18.23;;
3249;SDS011;1637;42.020;23.992;2023-02-03T08:51:47;16.13;;;9.13;;
3249;SDS011;1637;42.020;23.992;2023-02-03T08:54:14;15.20;;;6.53;;
3249;SDS011;1637;42.020;23.992;2023-02-03T08:56:41;6.97;;;2.80;;
3249;SDS011;1637;42.020;23.992;2023-02-03T08:59:07;27.23;;;9.17;;
3249;SDS011;1637;42.020;23.992;2023-02-03T09:01:34;6.00;;;3.73;;
3249;SDS011;1637;42.020;23.992;2023-02-03T09:04:01;8.50;;;5.00;;
3249;SDS011;1637;42.020;23.992;2023-02-03T09:06:31;14.70;;;6.13;;
3249;SDS011;1637;42.020;23.992;2023-02-03T09:08:59;13.47;;;5.20;;
3249;SDS011;1637;42.020;23.992;2023-02-03T09:11:26;13.90;;;6.60;;
3249;SDS011;1637;42.020;23.992;2023-02-03T09:13:53;14.73;;;7.40;;
3249;SDS011;1637;42.020;23.992;2023-02-03T09:16:22;24.23;;;10.70;;
3249;SDS011;1637;42.020;23.992;2023-02-03T09:18:50;7.10;;;4.20;;
3249;SDS011;1637;42.020;23.992;2023-02-03T09:21:16;16.00;;;8.07;;
3249;SDS011;1637;42.020;23.992;2023-02-03T09:23:44;19.53;;;9.13;;
3249;SDS011;1637;42.020;23.992;2023-02-03T09:26:12;4.10;;;2.17;;
3249;SDS011;1637;42.020;23.992;2023-02-03T09:28:40;7.10;;;3.80;;
3249;SDS011;1637;42.020;23.992;2023-02-03T09:31:08;18.83;;;9.17;;
3249;SDS011;1637;42.020;23.992;2023-02-03T09:33:36;8.57;;;3.37;;
3249;SDS011;1637;42.020;23.992;2023-02-03T09:36:04;12.20;;;2.50;;
3249;SDS011;1637;42.020;23.992;2023-02-03T09:38:32;3.77;;;2.80;;
3249;SDS011;1637;42.020;23.992;2023-02-03T09:41:00;3.73;;;2.73;;
3249;SDS011;1637;42.020;23.992;2023-02-03T09:43:39;6.23;;;3.33;;
3249;SDS011;1637;42.020;23.992;2023-02-03T09:46:11;10.03;;;5.60;;
3249;SDS011;1637;42.020;23.992;2023-02-03T09:48:43;3.60;;;2.20;;
3249;SDS011;1637;42.020;23.992;2023-02-03T09:51:18;5.23;;;2.90;;
3249;SDS011;1637;42.020;23.992;2023-02-03T09:53:49;3.03;;;2.60;;
3249;SDS011;1637;42.020;23.992;2023-02-03T09:56:22;2.40;;;1.50;;
3249;SDS011;1637;42.020;23.992;2023-02-03T09:58:55;4.73;;;3.73;;
3249;SDS011;1637;42.020;23.992;2023-02-03T10:01:22;8.20;;;3.60;;
3249;SDS011;1637;42.020;23.992;2023-02-03T10:03:55;13.20;;;3.03;;
3249;SDS011;1637;42.020;23.992;2023-02-03T10:06:30;3.07;;;1.57;;
3249;SDS011;1637;42.020;23.992;2023-02-03T10:09:08;3.83;;;2.13;;
3249;SDS011;1637;42.020;23.992;2023-02-03T10:11:51;20.37;;;8.30;;
3249;SDS011;1637;42.020;23.992;2023-02-03T10:14:34;3.17;;;1.57;;
3249;SDS011;1637;42.020;23.992;2023-02-03T10:17:16;12.73;;;6.53;;
3249;SDS011;1637;42.020;23.992;2023-02-03T10:19:54;4.30;;;2.90;;
3249;SDS011;1637;42.020;23.992;2023-02-03T10:22:26;11.30;;;4.23;;
3249;SDS011;1637;42.020;23.992;2023-02-03T10:24:56;3.57;;;2.03;;
3249;SDS011;1637;42.020;23.992;2023-02-03T10:27:26;9.03;;;5.27;;
3249;SDS011;1637;42.020;23.992;2023-02-03T10:29:56;4.13;;;2.70;;
3249;SDS011;1637;42.020;23.992;2023-02-03T10:32:28;11.13;;;3.10;;
3249;SDS011;1637;42.020;23.992;2023-02-03T10:34:55;2.57;;;2.30;;
3249;SDS011;1637;42.020;23.992;2023-02-03T10:37:25;21.63;;;3.93;;
3249;SDS011;1637;42.020;23.992;2023-02-03T10:39:53;8.87;;;4.20;;
3249;SDS011;1637;42.020;23.992;2023-02-03T10:42:22;14.47;;;3.53;;
3249;SDS011;1637;42.020;23.992;2023-02-03T10:44:51;7.23;;;2.70;;
3249;SDS011;1637;42.020;23.992;2023-02-03T10:47:26;16.97;;;5.43;;
3249;SDS011;1637;42.020;23.992;2023-02-03T10:49:59;23.43;;;2.97;;
3249;SDS011;1637;42.020;23.992;2023-02-03T10:52:29;23.67;;;4.00;;
3249;SDS011;1637;42.020;23.992;2023-02-03T10:54:58;11.67;;;3.60;;
3249;SDS011;1637;42.020;23.992;2023-02-03T10:57:29;9.03;;;2.87;;
3249;SDS011;1637;42.020;23.992;2023-02-03T11:00:04;35.43;;;14.20;;
3249;SDS011;1637;42.020;23.992;2023-02-03T11:02:35;16.67;;;8.50;;
3249;SDS011;1637;42.020;23.992;2023-02-03T11:05:18;51.80;;;15.27;;
3249;SDS011;1637;42.020;23.992;2023-02-03T11:07:46;16.00;;;7.40;;
3249;SDS011;1637;42.020;23.992;2023-02-03T11:10:24;27.70;;;11.90;;
3249;SDS011;1637;42.020;23.992;2023-02-03T11:12:59;18.67;;;10.50;;
3249;SDS011;1637;42.020;23.992;2023-02-03T11:15:36;20.60;;;9.67;;
3249;SDS011;1637;42.020;23.992;2023-02-03T11:21:04;2.07;;;1.70;;
3249;SDS011;1637;42.020;23.992;2023-02-03T11:23:33;6.53;;;3.47;;
3249;SDS011;1637;42.020;23.992;2023-02-03T11:26:10;5.00;;;3.60;;
3249;SDS011;1637;42.020;23.992;2023-02-03T11:28:43;5.80;;;2.67;;
3249;SDS011;1637;42.020;23.992;2023-02-03T11:31:16;4.03;;;3.23;;
3249;SDS011;1637;42.020;23.992;2023-02-03T11:33:47;9.77;;;2.97;;
3249;SDS011;1637;42.020;23.992;2023-02-03T11:36:19;1.97;;;1.57;;
3249;SDS011;1637;42.020;23.992;2023-02-03T11:38:46;2.83;;;1.30;;
3249;SDS011;1637;42.020;23.992;2023-02-03T11:41:14;1.23;;;1.13;;
3249;SDS011;1637;42.020;23.992;2023-02-03T11:43:42;1.77;;;1.43;;
3249;SDS011;1637;42.020;23.992;2023-02-03T11:46:09;3.00;;;1.10;;
3249;SDS011;1637;42.020;23.992;2023-02-03T11:48:37;2.20;;;1.10;;
3249;SDS011;1637;42.020;23.992;2023-02-03T11:51:14;5.40;;;3.17;;
3249;SDS011;1637;42.020;23.992;2023-02-03T11:53:57;16.57;;;5.47;;
3249;SDS011;1637;42.020;23.992;2023-02-03T11:56:35;1.00;;;0.90;;
3249;SDS011;1637;42.020;23.992;2023-02-03T11:59:20;1.97;;;1.10;;
3249;SDS011;1637;42.020;23.992;2023-02-03T12:05:15;1.67;;;1.10;;
3249;SDS011;1637;42.020;23.992;2023-02-03T12:07:59;2.17;;;1.17;;
3249;SDS011;1637;42.020;23.992;2023-02-03T12:10:45;1.30;;;1.20;;
3249;SDS011;1637;42.020;23.992;2023-02-03T12:13:31;6.37;;;2.00;;
3249;SDS011;1637;42.020;23.992;2023-02-03T12:16:21;17.23;;;6.03;;
3249;SDS011;1637;42.020;23.992;2023-02-03T12:19:07;12.00;;;1.83;;
3249;SDS011;1637;42.020;23.992;2023-02-03T12:21:41;2.93;;;0.90;;
3249;SDS011;1637;42.020;23.992;2023-02-03T12:24:23;3.63;;;1.10;;
3249;SDS011;1637;42.020;23.992;2023-02-03T12:27:04;1.03;;;0.70;;
3249;SDS011;1637;42.020;23.992;2023-02-03T12:29:44;21.03;;;2.90;;
3249;SDS011;1637;42.020;23.992;2023-02-03T12:32:18;11.90;;;8.13;;
3249;SDS011;1637;42.020;23.992;2023-02-03T12:34:52;2.13;;;1.20;;
3249;SDS011;1637;42.020;23.992;2023-02-03T12:37:25;2.20;;;1.43;;
3249;SDS011;1637;42.020;23.992;2023-02-03T12:39:57;1.57;;;1.40;;
3249;SDS011;1637;42.020;23.992;2023-02-03T12:42:28;2.20;;;1.47;;
3249;SDS011;1637;42.020;23.992;2023-02-03T12:44:58;1.27;;;1.17;;
3249;SDS011;1637;42.020;23.992;2023-02-03T12:47:30;0.70;;;0.57;;
3249;SDS011;1637;42.020;23.992;2023-02-03T12:50:02;9.33;;;3.70;;
3249;SDS011;1637;42.020;23.992;2023-02-03T12:52:33;2.43;;;1.23;;
3249;SDS011;1637;42.020;23.992;2023-02-03T12:55:07;11.23;;;2.33;;
3249;SDS011;1637;42.020;23.992;2023-02-03T12:57:48;27.80;;;10.63;;
3249;SDS011;1637;42.020;23.992;2023-02-03T13:00:31;5.93;;;3.67;;
3249;SDS011;1637;42.020;23.992;2023-02-03T13:03:12;5.03;;;1.43;;
3249;SDS011;1637;42.020;23.992;2023-02-03T13:05:47;47.80;;;12.77;;
3249;SDS011;1637;42.020;23.992;2023-02-03T13:08:21;25.60;;;9.53;;
3249;SDS011;1637;42.020;23.992;2023-02-03T13:10:54;11.07;;;4.07;;
3249;SDS011;1637;42.020;23.992;2023-02-03T13:13:30;1.00;;;0.90;;
3249;SDS011;1637;42.020;23.992;2023-02-03T13:16:01;9.27;;;2.50;;
3249;SDS011;1637;42.020;23.992;2023-02-03T13:18:33;6.70;;;5.97;;
3249;SDS011;1637;42.020;23.992;2023-02-03T13:21:03;11.30;;;10.20;;
3249;SDS011;1637;42.020;23.992;2023-02-03T13:23:30;1.20;;;1.10;;
3249;SDS011;1637;42.020;23.992;2023-02-03T13:28:58;1.20;;;1.10;;
3249;SDS011;1637;42.020;23.992;2023-02-03T13:31:37;1.00;;;0.90;;
3249;SDS011;1637;42.020;23.992;2023-02-03T13:34:22;1.13;;;1.00;;
3249;SDS011;1637;42.020;23.992;2023-02-03T13:37:06;4.30;;;1.20;;
3249;SDS011;1637;42.020;23.992;2023-02-03T13:39:51;2.90;;;2.40;;
3249;SDS011;1637;42.020;23.992;2023-02-03T13:42:33;24.57;;;14.87;;
3249;SDS011;1637;42.020;23.992;2023-02-03T13:45:07;19.53;;;11.30;;
3249;SDS011;1637;42.020;23.992;2023-02-03T13:47:43;54.90;;;33.13;;
3249;SDS011;1637;42.020;23.992;2023-02-03T13:50:15;33.53;;;25.70;;
3249;SDS011;1637;42.020;23.992;2023-02-03T13:52:51;14.70;;;7.40;;
3249;SDS011;1637;42.020;23.992;2023-02-03T13:55:24;49.50;;;13.03;;
3249;SDS011;1637;42.020;23.992;2023-02-03T13:57:56;53.40;;;24.10;;
3249;SDS011;1637;42.020;23.992;2023-02-03T14:03:42;28.77;;;14.43;;
3249;SDS011;1637;42.020;23.992;2023-02-03T14:09:37;15.90;;;4.80;;
3249;SDS011;1637;42.020;23.992;2023-02-03T14:12:15;28.90;;;10.77;;
3249;SDS011;1637;42.020;23.992;2023-02-03T14:14:54;10.23;;;2.93;;
3249;SDS011;1637;42.020;23.992;2023-02-03T14:20:55;28.17;;;3.40;;
3249;SDS011;1637;42.020;23.992;2023-02-03T14:23:40;109.37;;;35.47;;
3249;SDS011;1637;42.020;23.992;2023-02-03T14:26:21;44.57;;;16.43;;
3249;SDS011;1637;42.020;23.992;2023-02-03T14:28:54;5.00;;;2.60;;
3249;SDS011;1637;42.020;23.992;2023-02-03T14:31:23;63.63;;;29.40;;
3249;SDS011;1637;42.020;23.992;2023-02-03T14:34:03;23.17;;;11.60;;
3249;SDS011;1637;42.020;23.992;2023-02-03T14:36:41;12.60;;;5.87;;
3249;SDS011;1637;42.020;23.992;2023-02-03T14:42:34;1.27;;;1.17;;
3249;SDS011;1637;42.020;23.992;2023-02-03T14:45:25;34.23;;;11.90;;
3249;SDS011;1637;42.020;23.992;2023-02-03T14:48:07;1.90;;;1.67;;
3249;SDS011;1637;42.020;23.992;2023-02-03T14:50:50;10.83;;;2.17;;
3249;SDS011;1637;42.020;23.992;2023-02-03T14:53:38;1.63;;;1.40;;
3249;SDS011;1637;42.020;23.992;2023-02-03T14:56:19;4.00;;;1.80;;
3249;SDS011;1637;42.020;23.992;2023-02-03T14:58:53;5.00;;;1.60;;
3249;SDS011;1637;42.020;23.992;2023-02-03T15:01:26;3.90;;;1.60;;
3249;SDS011;1637;42.020;23.992;2023-02-03T15:04:33;49.70;;;9.63;;
3249;SDS011;1637;42.020;23.992;2023-02-03T15:07:00;15.70;;;4.67;;
3249;SDS011;1637;42.020;23.992;2023-02-03T15:09:27;15.83;;;7.17;;
3249;SDS011;1637;42.020;23.992;2023-02-03T15:11:58;134.43;;;47.67;;
3249;SDS011;1637;42.020;23.992;2023-02-03T15:14:25;165.20;;;60.20;;
3249;SDS011;1637;42.020;23.992;2023-02-03T15:16:56;77.07;;;29.30;;
3249;SDS011;1637;42.020;23.992;2023-02-03T15:19:26;4.40;;;2.23;;
3249;SDS011;1637;42.020;23.992;2023-02-03T15:21:56;28.73;;;17.73;;
3249;SDS011;1637;42.020;23.992;2023-02-03T15:24:22;49.40;;;23.10;;
3249;SDS011;1637;42.020;23.992;2023-02-03T15:26:51;142.50;;;55.40;;
3249;SDS011;1637;42.020;23.992;2023-02-03T15:29:25;114.83;;;49.20;;
3249;SDS011;1637;42.020;23.992;2023-02-03T15:31:56;109.93;;;36.73;;
3249;SDS011;1637;42.020;23.992;2023-02-03T15:34:31;36.20;;;15.60;;
3249;SDS011;1637;42.020;23.992;2023-02-03T15:37:04;34.43;;;16.00;;